Time;durP1;ratioP1;P1;durP2;ratioP2;P2;SDS_P1;SDS_P2;PMS_P1;PMS_P2;Temp;Humidity;BMP_temperature;BMP_pressure;BME280_temperature;BME280_humidity;BME280_pressure;Samples;Min_cycle;Max_cycle;Signal;HPM_P1;HPM_P2
2022/12/11 00:00:52;;;;;;;12.40;11.10;;;28.20;93.40;;;;;;5085205;28;20108;-55
2022/12/11 00:03:19;;;;;;;13.75;11.43;;;28.30;93.40;;;;;;5086264;28;20025;-54
2022/12/11 00:05:45;;;;;;;12.50;11.27;;;28.30;93.30;;;;;;5086308;28;20336;-52
2022/12/11 00:08:13;;;;;;;12.95;10.85;;;28.20;93.30;;;;;;5086489;28;20016;-54
2022/12/11 00:10:45;;;;;;;12.20;10.82;;;28.20;93.20;;;;;;5086642;28;20032;-54
2022/12/11 00:13:12;;;;;;;12.50;11.25;;;28.20;93.20;;;;;;5086520;28;20052;-56
2022/12/11 00:15:42;;;;;;;11.73;10.57;;;28.20;93.20;;;;;;5086304;28;20048;-54
2022/12/11 00:18:13;;;;;;;11.52;10.35;;;28.20;93.20;;;;;;5086276;28;20039;-54
2022/12/11 00:20:41;;;;;;;12.05;10.02;;;28.20;93.10;;;;;;5086350;28;20016;-55
2022/12/11 00:23:07;;;;;;;11.68;10.23;;;28.10;93.10;;;;;;5086055;28;20046;-53
2022/12/11 00:25:34;;;;;;;10.95;9.82;;;28.10;93.10;;;;;;5086122;28;20054;-56
2022/12/11 00:28:00;;;;;;;12.10;10.20;;;28.10;93.20;;;;;;5085992;28;20343;-56
2022/12/11 00:30:27;;;;;;;13.35;10.52;;;28.10;93.20;;;;;;5085006;28;20028;-54
2022/12/11 00:32:53;;;;;;;11.95;10.80;;;28.10;93.20;;;;;;5086039;28;20101;-56
2022/12/11 00:35:20;;;;;;;11.65;10.55;;;28.10;93.20;;;;;;5086050;28;20039;-54
2022/12/11 00:37:47;;;;;;;11.27;10.10;;;28.10;93.30;;;;;;5085656;28;20033;-52
2022/12/11 00:40:13;;;;;;;11.80;10.60;;;28.10;93.30;;;;;;5084164;28;20055;-53
2022/12/11 00:42:40;;;;;;;12.93;10.38;;;28.10;93.30;;;;;;5085540;28;20036;-55
2022/12/11 00:45:46;;;;;;;12.82;10.30;;;28.10;93.30;;;;;;5085161;28;20029;-53
2022/12/11 00:48:17;;;;;;;12.60;11.27;;;28.10;93.30;;;;;;5085271;28;20250;-53
2022/12/11 00:50:48;;;;;;;12.68;11.38;;;28.10;93.30;;;;;;5085268;28;20084;-56
2022/12/11 00:53:17;;;;;;;13.30;11.85;;;28.10;93.40;;;;;;5085215;28;20024;-52
2022/12/11 00:55:47;;;;;;;13.48;12.13;;;28.10;93.40;;;;;;5083442;28;20094;-54
2022/12/11 00:58:14;;;;;;;13.23;11.75;;;28.00;93.40;;;;;;5085151;28;20087;-54
2022/12/11 01:00:44;;;;;;;16.15;12.48;;;28.10;93.40;;;;;;5085250;28;20292;-54
2022/12/11 01:03:13;;;;;;;14.23;12.00;;;28.00;93.40;;;;;;5084828;28;20137;-56
2022/12/11 01:05:41;;;;;;;17.88;12.27;;;28.00;93.40;;;;;;5084483;28;20047;-54
2022/12/11 01:08:09;;;;;;;17.23;12.20;;;28.00;93.40;;;;;;5084497;28;20025;-53
2022/12/11 01:10:36;;;;;;;13.50;11.77;;;28.00;93.40;;;;;;5084457;28;20024;-53
2022/12/11 01:13:08;;;;;;;15.35;11.85;;;28.00;93.40;;;;;;5083859;28;20027;-54
2022/12/11 01:15:45;;;;;;;14.32;11.57;;;28.00;93.30;;;;;;5083732;28;20029;-55
2022/12/11 01:18:16;;;;;;;12.45;11.23;;;28.00;93.30;;;;;;5084755;28;20035;-56
2022/12/11 01:20:43;;;;;;;12.90;10.70;;;28.00;93.30;;;;;;5084868;28;20031;-57
2022/12/11 01:23:12;;;;;;;11.35;10.13;;;27.90;93.20;;;;;;5084447;28;20028;-55
2022/12/11 01:25:41;;;;;;;11.50;9.85;;;28.00;93.20;;;;;;5084805;28;20048;-54
2022/12/11 01:28:13;;;;;;;12.70;9.88;;;27.90;93.10;;;;;;5084429;28;20058;-53
2022/12/11 01:30:44;;;;;;;11.93;10.70;;;28.00;93.20;;;;;;5084470;28;20032;-54
2022/12/11 01:33:13;;;;;;;13.35;11.18;;;27.90;93.10;;;;;;5083107;28;20024;-53
2022/12/11 01:35:41;;;;;;;12.82;10.80;;;27.90;93.10;;;;;;5082835;28;20112;-55
2022/12/11 01:38:09;;;;;;;12.30;10.77;;;27.90;93.10;;;;;;5082812;28;20202;-54
2022/12/11 01:40:38;;;;;;;10.95;9.82;;;27.90;93.10;;;;;;5084446;28;20320;-53
2022/12/11 01:43:09;;;;;;;11.80;10.60;;;27.90;93.00;;;;;;5084010;28;20035;-51
2022/12/11 01:45:43;;;;;;;11.95;10.52;;;27.90;93.00;;;;;;5084069;28;20256;-53
2022/12/11 01:48:22;;;;;;;12.50;11.20;;;27.90;93.00;;;;;;5083024;28;20032;-52
2022/12/11 01:50:57;;;;;;;12.07;10.77;;;27.90;93.00;;;;;;5084090;28;20030;-54
2022/12/11 01:53:45;;;;;;;11.05;9.95;;;27.90;93.00;;;;;;5083929;28;20071;-53
2022/12/11 01:59:25;;;;;;;11.57;9.73;;;27.90;93.00;;;;;;5083933;28;20067;-56
2022/12/11 02:02:00;;;;;;;11.10;9.88;;;27.90;92.90;;;;;;5082712;28;20035;-57
2022/12/11 02:04:33;;;;;;;10.80;9.80;;;27.80;92.80;;;;;;5082714;28;20103;-54
2022/12/11 02:07:04;;;;;;;11.70;9.23;;;27.90;92.80;;;;;;5083747;28;20032;-55
2022/12/11 02:09:35;;;;;;;10.47;9.40;;;27.90;92.70;;;;;;5083689;28;20020;-53
2022/12/11 02:12:13;;;;;;;10.20;9.27;;;27.80;92.70;;;;;;5082580;28;20110;-53
2022/12/11 02:15:09;;;;;;;9.60;8.55;;;27.80;92.70;;;;;;5082580;28;20027;-54
2022/12/11 02:18:04;;;;;;;10.25;9.23;;;27.80;92.60;;;;;;5083734;28;20037;-54
2022/12/11 02:21:00;;;;;;;11.32;8.35;;;27.80;92.50;;;;;;5083875;28;20028;-54
2022/12/11 02:23:42;;;;;;;10.52;9.43;;;27.80;92.50;;;;;;5075231;28;20271;-53
2022/12/11 02:26:27;;;;;;;10.82;9.02;;;27.80;92.40;;;;;;5084000;28;20208;-53
2022/12/11 02:29:03;;;;;;;9.40;8.45;;;27.80;92.30;;;;;;5083646;28;20087;-53
2022/12/11 02:31:46;;;;;;;9.80;8.02;;;27.80;92.40;;;;;;5083972;28;20016;-55
2022/12/11 02:34:51;;;;;;;9.63;8.57;;;27.80;92.30;;;;;;5033731;28;20028;-54
2022/12/11 02:37:26;;;;;;;9.85;7.95;;;27.60;92.30;;;;;;4952278;28;20369;-54
2022/12/11 02:39:55;;;;;;;9.32;8.43;;;27.50;92.60;;;;;;4989858;28;20094;-56
2022/12/11 02:42:27;;;;;;;13.70;8.93;;;27.50;92.60;;;;;;5020424;28;20062;-55
2022/12/11 02:45:00;;;;;;;11.30;8.55;;;27.50;92.70;;;;;;5082326;28;20123;-55
2022/12/11 02:47:32;;;;;;;11.40;8.88;;;27.50;92.60;;;;;;5043673;28;20129;-54
2022/12/11 02:50:10;;;;;;;12.02;9.13;;;27.50;92.50;;;;;;4970736;28;20038;-55
2022/12/11 02:52:43;;;;;;;13.23;9.23;;;27.50;92.40;;;;;;4970169;28;20053;-55
2022/12/11 02:55:17;;;;;;;9.43;8.50;;;27.50;92.30;;;;;;4980665;28;20245;-56
2022/12/11 02:58:14;;;;;;;10.40;9.30;;;27.50;92.30;;;;;;4980802;28;20078;-56
2022/12/11 03:00:56;;;;;;;;;;;;;;;;;;;;;
2022/12/11 03:03:25;;;;;;;9.82;8.93;;;27.50;92.10;;;;;;4982490;28;20085;-56
2022/12/11 03:06:07;;;;;;;10.32;9.07;;;27.50;92.10;;;;;;5011061;28;20091;-57
2022/12/11 03:08:35;;;;;;;9.50;8.50;;;27.50;92.10;;;;;;5049629;28;20024;-55
2022/12/11 03:11:06;;;;;;;9.70;8.70;;;27.50;92.10;;;;;;5026851;28;20035;-57
2022/12/11 03:13:37;;;;;;;10.30;8.15;;;27.50;92.20;;;;;;5054600;28;20332;-57
2022/12/11 03:16:49;;;;;;;9.77;8.93;;;27.50;92.20;;;;;;5046719;28;20035;-56
2022/12/11 03:19:30;;;;;;;11.05;8.68;;;27.50;92.30;;;;;;5040307;28;20094;-55
2022/12/11 03:22:45;;;;;;;11.88;9.18;;;27.40;92.20;;;;;;5083673;28;20297;-55
2022/12/11 03:25:22;;;;;;;9.50;8.60;;;27.40;92.20;;;;;;5022532;28;20151;-56
2022/12/11 03:28:04;;;;;;;10.20;8.30;;;27.40;92.20;;;;;;5023449;28;20050;-56
2022/12/11 03:30:36;;;;;;;11.55;8.50;;;27.40;92.20;;;;;;4981290;28;20037;-54
2022/12/11 03:33:07;;;;;;;8.95;8.05;;;27.40;92.20;;;;;;4981370;28;20076;-54
2022/12/11 03:35:58;;;;;;;9.38;8.35;;;27.40;92.20;;;;;;4983899;28;20068;-54
2022/12/11 03:38:36;;;;;;;11.35;8.02;;;27.40;92.10;;;;;;5013862;28;20061;-53
2022/12/11 03:41:06;;;;;;;9.40;8.45;;;27.40;92.20;;;;;;5012247;28;20042;-53
2022/12/11 03:43:37;;;;;;;9.18;8.25;;;27.40;92.20;;;;;;4996068;28;20037;-54
2022/12/11 03:46:08;;;;;;;10.85;8.00;;;27.40;92.20;;;;;;4982540;28;20283;-55
2022/12/11 03:48:39;;;;;;;10.52;8.13;;;27.40;92.30;;;;;;4983070;28;20088;-55
2022/12/11 03:51:09;;;;;;;9.13;8.15;;;27.30;92.30;;;;;;4984552;28;20054;-54
2022/12/11 03:53:38;;;;;;;10.90;7.80;;;27.30;92.20;;;;;;4984162;28;20322;-55
2022/12/11 03:56:09;;;;;;;11.13;7.78;;;27.30;92.20;;;;;;4984581;28;20356;-54
2022/12/11 03:58:37;;;;;;;8.82;7.35;;;27.30;92.20;;;;;;4983125;28;20038;-56
2022/12/11 04:01:08;;;;;;;8.52;7.65;;;27.40;92.30;;;;;;4984378;28;20084;-55
2022/12/11 04:03:39;;;;;;;8.85;7.93;;;27.30;92.30;;;;;;4984113;28;20223;-58
2022/12/11 04:06:06;;;;;;;9.50;7.90;;;27.30;92.30;;;;;;4982540;28;20031;-55
2022/12/11 04:08:37;;;;;;;8.98;7.40;;;27.30;92.30;;;;;;5004213;28;20024;-53
2022/12/11 04:15:00;;;;;;;9.57;7.97;;;27.30;92.30;;;;;;5035640;28;20029;-54
2022/12/11 04:16:38;;;;;;;18.73;17.05;;;27.30;92.40;;;;;;5024298;28;20326;-56
2022/12/11 04:24:38;;;;;;;40.47;36.60;;;27.30;92.50;;;;;;5066685;28;20027;-53
2022/12/11 04:27:06;;;;;;;28.63;25.83;;;27.30;92.70;;;;;;5084836;28;20032;-55
2022/12/11 04:29:33;;;;;;;22.48;20.33;;;27.30;92.50;;;;;;5084518;28;20210;-55
2022/12/11 04:32:00;;;;;;;18.02;16.30;;;27.30;92.50;;;;;;5073769;28;20044;-57
2022/12/11 04:34:27;;;;;;;14.30;12.90;;;27.30;92.40;;;;;;5023847;28;20018;-56
2022/12/11 04:36:54;;;;;;;14.15;12.02;;;27.30;92.30;;;;;;5040716;28;20033;-55
2022/12/11 04:39:24;;;;;;;13.65;11.27;;;27.30;92.20;;;;;;5085708;28;20088;-55
2022/12/11 04:41:51;;;;;;;12.55;10.52;;;27.20;92.20;;;;;;5086066;28;20033;-56
2022/12/11 04:44:18;;;;;;;9.80;8.90;;;27.30;92.20;;;;;;5085388;28;20056;-55
2022/12/11 04:46:45;;;;;;;10.32;9.30;;;27.20;92.10;;;;;;5037676;28;20258;-54
2022/12/11 04:49:11;;;;;;;9.88;8.93;;;27.20;92.20;;;;;;5019896;28;20035;-58
2022/12/11 04:51:41;;;;;;;9.68;8.70;;;27.20;92.20;;;;;;5012753;28;20023;-53
2022/12/11 04:54:08;;;;;;;11.13;8.13;;;27.30;92.20;;;;;;5020369;28;20070;-58
2022/12/11 04:56:34;;;;;;;10.38;7.85;;;27.20;92.10;;;;;;5027865;28;20051;-57
2022/12/11 04:59:01;;;;;;;11.07;8.23;;;27.20;92.10;;;;;;5085096;28;20024;-56
2022/12/11 05:01:27;;;;;;;9.98;7.85;;;27.20;92.10;;;;;;5085494;28;20020;-57
2022/12/11 05:03:55;;;;;;;9.57;7.68;;;27.20;92.10;;;;;;5085073;28;20017;-56
2022/12/11 05:06:21;;;;;;;8.75;7.78;;;27.20;92.10;;;;;;5084842;28;20037;-55
2022/12/11 05:08:48;;;;;;;8.70;7.90;;;27.20;92.00;;;;;;5085043;28;20047;-56
2022/12/11 05:11:16;;;;;;;9.52;7.68;;;27.20;92.10;;;;;;5085209;28;20034;-55
2022/12/11 05:13:43;;;;;;;8.10;7.30;;;27.20;92.10;;;;;;5077478;28;20235;-53
2022/12/11 05:16:14;;;;;;;8.73;7.53;;;27.10;92.10;;;;;;5014324;28;20016;-56
2022/12/11 05:18:40;;;;;;;9.63;6.90;;;27.10;92.00;;;;;;5013879;28;20039;-55
2022/12/11 05:21:10;;;;;;;8.48;7.38;;;27.10;91.90;;;;;;5017854;28;20030;-56
2022/12/11 05:23:37;;;;;;;8.38;7.40;;;27.10;91.80;;;;;;5022525;28;20028;-58
2022/12/11 05:26:07;;;;;;;9.15;6.65;;;27.10;91.80;;;;;;5018776;28;20031;-55
2022/12/11 05:28:36;;;;;;;10.52;6.88;;;27.10;91.80;;;;;;5022253;28;20042;-55
2022/12/11 05:31:14;;;;;;;8.15;7.35;;;27.10;91.80;;;;;;5022315;28;20035;-59
2022/12/11 05:33:40;;;;;;;7.60;6.53;;;27.10;91.80;;;;;;5046042;28;20022;-55
2022/12/11 05:36:08;;;;;;;9.13;6.72;;;27.10;91.80;;;;;;5012602;28;20295;-55
2022/12/11 05:38:35;;;;;;;8.10;6.80;;;27.10;91.80;;;;;;5053704;28;20028;-56
2022/12/11 05:41:04;;;;;;;9.80;7.05;;;27.00;91.80;;;;;;5039460;28;20208;-56
2022/12/11 05:43:35;;;;;;;8.18;6.82;;;27.00;91.70;;;;;;5084328;28;20220;-56
2022/12/11 05:46:06;;;;;;;7.40;6.72;;;27.00;91.70;;;;;;5040127;28;20058;-56
2022/12/11 05:48:34;;;;;;;9.38;7.63;;;27.00;91.70;;;;;;5012045;28;20231;-55
2022/12/11 05:51:02;;;;;;;8.20;6.97;;;27.00;91.70;;;;;;5084088;28;20028;-55
2022/12/11 05:53:29;;;;;;;9.07;7.35;;;26.90;91.70;;;;;;5084238;28;20066;-55
2022/12/11 05:56:02;;;;;;;10.35;6.75;;;26.90;91.70;;;;;;5084547;28;20029;-59
2022/12/11 05:58:29;;;;;;;10.02;7.45;;;27.00;91.70;;;;;;5084211;28;20190;-55
2022/12/11 06:00:56;;;;;;;7.50;6.80;;;26.90;91.80;;;;;;5084254;28;20071;-57
2022/12/11 06:03:22;;;;;;;7.57;6.85;;;26.90;91.80;;;;;;5084104;28;20099;-55
2022/12/11 06:05:49;;;;;;;8.75;7.05;;;26.90;91.80;;;;;;5084276;28;20096;-55
2022/12/11 06:08:16;;;;;;;8.77;7.35;;;26.90;91.70;;;;;;5083924;28;20052;-56
2022/12/11 06:10:47;;;;;;;9.13;7.68;;;26.90;91.80;;;;;;5084242;28;20027;-56
2022/12/11 06:13:14;;;;;;;9.52;7.20;;;26.90;91.80;;;;;;5083979;28;20221;-54
2022/12/11 06:15:41;;;;;;;8.27;7.20;;;26.90;91.80;;;;;;5032594;28;20031;-54
2022/12/11 06:18:07;;;;;;;9.10;6.93;;;26.90;91.70;;;;;;5040410;28;20024;-55
2022/12/11 06:20:34;;;;;;;10.48;7.45;;;26.90;91.70;;;;;;5040948;28;20103;-56
2022/12/11 06:23:01;;;;;;;9.13;7.10;;;26.90;91.60;;;;;;5083899;28;20333;-54
2022/12/11 06:25:29;;;;;;;8.60;6.97;;;26.90;91.60;;;;;;5084177;28;20358;-56
2022/12/11 06:27:56;;;;;;;8.35;6.68;;;26.80;91.70;;;;;;5083725;28;20046;-56
2022/12/11 06:30:23;;;;;;;8.80;7.78;;;26.80;91.80;;;;;;5083973;28;20323;-55
2022/12/11 06:32:49;;;;;;;7.63;6.82;;;26.80;91.80;;;;;;5083721;28;20035;-55
2022/12/11 06:35:16;;;;;;;8.68;6.97;;;26.70;91.80;;;;;;5083809;28;20051;-55
2022/12/11 06:37:43;;;;;;;8.95;7.80;;;26.70;91.80;;;;;;5083761;28;20032;-57
2022/12/11 06:40:13;;;;;;;8.30;7.43;;;26.70;91.90;;;;;;5083565;28;20036;-55
2022/12/11 06:42:40;;;;;;;10.35;8.00;;;26.80;91.90;;;;;;5083711;28;20028;-55
2022/12/11 06:45:08;;;;;;;8.60;7.28;;;26.70;91.80;;;;;;5083473;28;20100;-55
2022/12/11 06:47:34;;;;;;;10.80;7.20;;;26.70;91.80;;;;;;5083483;28;20040;-55
2022/12/11 06:50:01;;;;;;;9.70;7.72;;;26.70;91.80;;;;;;5065540;28;20257;-55
2022/12/11 06:52:28;;;;;;;8.90;8.00;;;26.70;91.80;;;;;;4995781;28;20023;-55
2022/12/11 06:54:55;;;;;;;9.95;8.23;;;26.70;91.80;;;;;;5026634;28;20030;-54
2022/12/11 06:57:22;;;;;;;10.70;7.88;;;26.70;91.80;;;;;;4981865;28;20042;-55
2022/12/11 06:59:50;;;;;;;10.10;7.78;;;26.70;91.90;;;;;;4981707;28;20031;-57
2022/12/11 07:02:19;;;;;;;10.10;7.60;;;26.70;91.90;;;;;;4981513;28;20031;-54
2022/12/11 07:04:45;;;;;;;9.13;8.27;;;26.70;92.00;;;;;;4981550;28;20077;-54
2022/12/11 07:07:12;;;;;;;10.07;9.07;;;26.70;92.00;;;;;;4981462;28;20035;-55
2022/12/11 07:09:40;;;;;;;11.15;9.07;;;26.70;92.00;;;;;;4982956;28;20022;-55
2022/12/11 07:12:07;;;;;;;11.90;8.68;;;26.70;92.10;;;;;;4985209;28;20090;-54
2022/12/11 07:14:33;;;;;;;11.30;9.27;;;26.70;92.10;;;;;;4988369;28;20058;-55
2022/12/11 07:17:00;;;;;;;9.93;8.65;;;26.70;92.20;;;;;;5020897;28;20033;-55
2022/12/11 07:19:27;;;;;;;11.10;8.52;;;26.70;92.20;;;;;;5087023;28;20257;-55
2022/12/11 07:21:54;;;;;;;10.02;9.02;;;26.70;92.10;;;;;;5087468;28;20024;-55
2022/12/11 07:24:20;;;;;;;9.60;8.60;;;26.60;92.10;;;;;;5086843;28;20090;-55
2022/12/11 07:26:47;;;;;;;11.15;8.70;;;26.60;92.10;;;;;;5054334;28;20034;-55
2022/12/11 07:29:14;;;;;;;10.55;8.80;;;26.60;92.20;;;;;;5035816;28;20044;-55
2022/12/11 07:31:40;;;;;;;10.18;9.23;;;26.70;92.20;;;;;;5035211;28;20032;-54
2022/12/11 07:34:07;;;;;;;10.15;9.15;;;26.70;92.30;;;;;;5086849;28;20027;-55
2022/12/11 07:36:37;;;;;;;10.40;9.07;;;26.60;92.30;;;;;;5086742;28;20029;-56
2022/12/11 07:39:03;;;;;;;12.63;9.30;;;26.60;92.30;;;;;;5068880;28;20027;-61
2022/12/11 07:41:30;;;;;;;12.63;9.25;;;26.60;92.40;;;;;;5087079;28;20044;-54
2022/12/11 07:44:00;;;;;;;11.20;8.40;;;26.60;92.40;;;;;;5018495;28;20227;-55
2022/12/11 07:46:29;;;;;;;10.48;9.38;;;26.60;92.50;;;;;;5035625;28;20056;-56
2022/12/11 07:48:55;;;;;;;9.60;8.50;;;26.60;92.50;;;;;;5055797;28;20035;-54
2022/12/11 07:51:27;;;;;;;9.57;8.57;;;26.60;92.80;;;;;;5014650;28;20196;-52
2022/12/11 07:54:00;;;;;;;9.45;8.55;;;26.60;92.60;;;;;;5025537;28;20321;-53
2022/12/11 07:56:29;;;;;;;9.10;8.20;;;26.60;92.70;;;;;;5033852;28;20036;-53
2022/12/11 07:58:58;;;;;;;10.45;7.88;;;26.60;92.70;;;;;;5086194;28;20321;-53
2022/12/11 08:01:26;;;;;;;9.73;8.73;;;26.60;92.70;;;;;;5086623;28;20262;-53
2022/12/11 08:03:54;;;;;;;9.20;8.27;;;26.60;92.70;;;;;;5086334;28;20101;-52
2022/12/11 08:06:26;;;;;;;10.15;7.78;;;26.60;92.70;;;;;;5086442;28;20032;-52
2022/12/11 08:08:54;;;;;;;9.07;8.18;;;26.60;92.70;;;;;;5086097;28;20037;-53
2022/12/11 08:11:21;;;;;;;10.13;8.45;;;26.60;92.70;;;;;;5086450;28;20025;-52
2022/12/11 08:13:48;;;;;;;10.05;8.15;;;26.60;92.80;;;;;;5067702;28;20020;-53
2022/12/11 08:16:16;;;;;;;9.15;8.35;;;26.50;92.80;;;;;;5009836;28;20069;-53
2022/12/11 08:18:43;;;;;;;9.68;8.45;;;26.60;92.80;;;;;;5054387;28;20032;-52
2022/12/11 08:21:16;;;;;;;9.18;8.27;;;26.50;92.80;;;;;;5025026;28;20043;-51
2022/12/11 08:23:43;;;;;;;9.27;8.43;;;26.50;92.80;;;;;;5015977;28;20049;-55
2022/12/11 08:26:16;;;;;;;9.05;8.15;;;26.50;92.80;;;;;;5085500;28;20039;-53
2022/12/11 08:28:43;;;;;;;9.27;8.38;;;26.50;92.90;;;;;;5085731;28;20063;-53
2022/12/11 08:31:12;;;;;;;9.02;8.18;;;26.50;93.00;;;;;;5040588;28;20042;-55
2022/12/11 08:33:40;;;;;;;9.57;8.57;;;26.50;93.00;;;;;;5068593;28;20020;-54
2022/12/11 08:36:09;;;;;;;10.15;8.20;;;26.50;93.00;;;;;;5057906;28;20020;-56
2022/12/11 08:38:36;;;;;;;9.27;8.35;;;26.50;93.00;;;;;;5038620;28;20036;-53
2022/12/11 08:41:19;;;;;;;9.27;8.32;;;26.50;93.10;;;;;;5076431;28;20035;-53
2022/12/11 08:43:47;;;;;;;9.77;7.95;;;26.40;93.00;;;;;;5040915;28;20033;-54
2022/12/11 08:46:14;;;;;;;10.27;8.05;;;26.40;92.90;;;;;;5020819;28;20059;-54
2022/12/11 08:48:42;;;;;;;9.07;8.18;;;26.40;92.90;;;;;;5068568;28;20032;-54
2022/12/11 08:51:12;;;;;;;9.85;8.25;;;26.50;92.90;;;;;;5047706;28;20026;-53
2022/12/11 08:53:39;;;;;;;9.35;8.43;;;26.50;92.90;;;;;;5063190;28;20363;-53
2022/12/11 08:56:17;;;;;;;9.85;8.38;;;26.40;92.90;;;;;;5085600;28;20036;-54
2022/12/11 08:58:45;;;;;;;9.70;8.48;;;26.50;93.00;;;;;;5085217;28;20099;-55
2022/12/11 09:01:18;;;;;;;10.65;8.15;;;26.40;93.00;;;;;;5085386;28;20296;-53
2022/12/11 09:03:44;;;;;;;9.75;7.72;;;26.40;93.10;;;;;;5040801;28;20022;-55
2022/12/11 09:06:15;;;;;;;10.15;8.25;;;26.40;93.10;;;;;;5019853;28;20039;-54
2022/12/11 09:08:42;;;;;;;9.15;8.10;;;26.40;93.10;;;;;;5071951;28;20020;-54
2022/12/11 09:11:13;;;;;;;10.75;8.50;;;26.40;93.00;;;;;;5085255;28;20209;-53
2022/12/11 09:13:41;;;;;;;9.02;8.13;;;26.40;93.00;;;;;;5084808;28;20092;-54
2022/12/11 09:16:10;;;;;;;9.30;8.40;;;26.40;93.00;;;;;;5085137;28;20032;-53
2022/12/11 09:18:38;;;;;;;10.48;7.90;;;26.40;93.00;;;;;;5084885;28;20342;-54
2022/12/11 09:21:13;;;;;;;9.93;8.25;;;26.40;93.00;;;;;;5031346;28;20038;-54
2022/12/11 09:23:40;;;;;;;12.00;8.18;;;26.40;93.00;;;;;;5023727;28;20204;-53
2022/12/11 09:28:54;;;;;;;9.68;8.35;;;26.40;93.10;;;;;;5029523;28;20057;-53
2022/12/11 09:31:27;;;;;;;8.55;7.68;;;26.40;93.10;;;;;;4983072;28;20027;-54
2022/12/11 09:33:59;;;;;;;13.27;8.40;;;26.40;93.10;;;;;;5016244;28;20044;-55
2022/12/11 09:36:27;;;;;;;8.90;8.00;;;26.40;93.20;;;;;;5029692;28;20092;-53
2022/12/11 09:38:53;;;;;;;9.82;8.65;;;26.40;93.20;;;;;;4999756;28;20035;-53
2022/12/11 09:41:29;;;;;;;10.38;8.70;;;26.40;93.20;;;;;;4994449;28;20322;-55
2022/12/11 09:44:16;;;;;;;9.18;8.23;;;26.40;93.30;;;;;;5002151;28;20031;-52
2022/12/11 09:46:44;;;;;;;10.27;8.52;;;26.40;93.30;;;;;;5001970;28;20066;-54
2022/12/11 09:49:31;;;;;;;9.48;8.48;;;26.40;93.20;;;;;;5001997;28;20372;-54
2022/12/11 09:52:24;;;;;;;10.63;8.75;;;26.40;93.20;;;;;;4993876;28;20190;-53
2022/12/11 09:54:59;;;;;;;10.02;8.13;;;26.40;93.20;;;;;;5001804;28;20031;-53
2022/12/11 09:57:32;;;;;;;10.63;8.63;;;26.40;93.20;;;;;;5007076;28;20030;-53
2022/12/11 10:00:18;;;;;;;9.23;8.32;;;26.40;93.30;;;;;;5034003;28;20048;-53
2022/12/11 10:03:21;;;;;;;14.23;7.70;;;26.40;93.30;;;;;;5045829;28;20023;-56
2022/12/11 10:06:06;;;;;;;14.10;8.10;;;26.40;93.30;;;;;;5001991;28;20254;-54
2022/12/11 10:08:36;;;;;;;14.88;8.93;;;26.40;93.40;;;;;;5023469;28;20037;-55
2022/12/11 10:11:30;;;;;;;12.35;8.00;;;26.40;93.40;;;;;;4982581;28;20038;-54
2022/12/11 10:14:30;;;;;;;12.20;8.02;;;26.40;93.40;;;;;;4982400;28;20046;-56
2022/12/11 10:17:08;;;;;;;9.77;8.75;;;26.40;93.50;;;;;;4982534;28;20102;-53
2022/12/11 10:19:35;;;;;;;12.38;8.73;;;26.40;93.50;;;;;;4982192;28;20042;-56
2022/12/11 10:22:02;;;;;;;11.57;8.25;;;26.40;93.50;;;;;;4982106;28;20094;-53
2022/12/11 10:24:43;;;;;;;13.02;8.65;;;26.40;93.50;;;;;;4982273;28;20015;-54
2022/12/11 10:27:21;;;;;;;11.32;8.50;;;26.40;93.40;;;;;;4982037;28;20041;-54
2022/12/11 10:30:09;;;;;;;10.50;7.88;;;26.30;93.40;;;;;;5012788;28;20054;-52
2022/12/11 10:32:45;;;;;;;8.15;7.43;;;26.40;93.40;;;;;;5020329;28;20030;-55
2022/12/11 10:35:23;;;;;;;9.50;8.30;;;26.40;93.40;;;;;;5001345;28;20023;-55
2022/12/11 10:37:51;;;;;;;11.30;7.93;;;26.40;93.40;;;;;;5050814;28;20329;-53
2022/12/11 10:40:19;;;;;;;9.60;8.60;;;26.30;93.40;;;;;;4991394;28;20035;-54
2022/12/11 10:42:55;;;;;;;10.43;8.50;;;26.30;93.40;;;;;;4992511;28;20031;-56
2022/12/11 10:45:22;;;;;;;9.32;8.35;;;26.30;93.40;;;;;;4986246;28;20215;-54
2022/12/11 10:47:48;;;;;;;10.27;8.50;;;26.30;93.40;;;;;;4992268;28;20390;-54
2022/12/11 10:50:24;;;;;;;9.73;8.73;;;26.30;93.40;;;;;;5037381;28;20117;-53
2022/12/11 10:52:52;;;;;;;10.45;8.73;;;26.30;93.40;;;;;;5017160;28;20076;-53
2022/12/11 10:55:34;;;;;;;9.43;8.43;;;26.30;93.50;;;;;;5018508;28;20023;-53
2022/12/11 10:58:03;;;;;;;10.27;8.52;;;26.30;93.50;;;;;;4965789;28;20319;-51
2022/12/11 11:00:40;;;;;;;9.02;8.13;;;26.30;93.50;;;;;;4966084;28;20046;-52
2022/12/11 11:03:23;;;;;;;9.98;8.00;;;26.30;93.60;;;;;;4965711;28;20357;-53
2022/12/11 11:06:01;;;;;;;9.18;8.15;;;26.30;93.70;;;;;;5016126;28;20082;-53
2022/12/11 11:08:28;;;;;;;13.05;8.45;;;26.30;93.60;;;;;;5087052;28;20025;-53
2022/12/11 11:10:58;;;;;;;78.95;11.23;;;26.30;93.70;;;;;;5087640;28;20100;-55
2022/12/11 11:13:27;;;;;;;12.63;10.00;;;26.30;93.90;;;;;;5087263;28;20069;-56
2022/12/11 11:16:05;;;;;;;12.20;9.82;;;26.20;94.00;;;;;;5087067;28;20026;-55
2022/12/11 11:18:33;;;;;;;13.38;10.95;;;26.10;94.20;;;;;;5065167;28;20034;-55
2022/12/11 11:21:00;;;;;;;11.65;10.15;;;26.00;94.50;;;;;;4986426;28;20318;-55
2022/12/11 11:23:27;;;;;;;12.25;9.60;;;25.90;94.40;;;;;;4997352;28;20083;-55
2022/12/11 11:25:59;;;;;;;12.45;9.93;;;25.90;94.30;;;;;;5004478;28;20026;-53
2022/12/11 11:28:40;;;;;;;31.52;10.95;;;25.90;94.50;;;;;;4999143;28;20035;-55
2022/12/11 11:31:12;;;;;;;10.63;9.50;;;25.90;94.80;;;;;;4984930;28;20030;-54
2022/12/11 11:33:58;;;;;;;12.30;9.23;;;25.90;94.50;;;;;;4983816;28;20031;-53
2022/12/11 11:36:27;;;;;;;11.63;8.90;;;26.00;94.40;;;;;;4972873;28;20201;-54
2022/12/11 11:39:09;;;;;;;10.02;8.90;;;26.10;94.30;;;;;;4981897;28;20031;-52
2022/12/11 11:41:45;;;;;;;;;;;26.10;94.20;;;;;;4976687;28;20038;-54
2022/12/11 11:44:17;;;;;;;12.18;8.60;;;26.10;94.00;;;;;;4982601;28;19921;-53
2022/12/11 11:46:48;;;;;;;10.30;9.35;;;26.20;94.00;;;;;;4982679;28;20062;-55
2022/12/11 11:49:40;;;;;;;11.77;9.88;;;26.20;94.00;;;;;;4974990;28;20042;-54
2022/12/11 11:52:29;;;;;;;10.75;9.43;;;26.30;93.90;;;;;;4978478;28;20050;-53
2022/12/11 11:55:08;;;;;;;10.60;9.50;;;26.30;93.80;;;;;;4964736;28;20043;-54
2022/12/11 11:57:38;;;;;;;10.93;9.60;;;26.30;93.70;;;;;;4980571;28;20015;-55
2022/12/11 12:00:20;;;;;;;13.88;10.07;;;26.40;93.80;;;;;;4995544;28;20043;-53
2022/12/11 12:02:50;;;;;;;10.23;9.07;;;26.40;93.70;;;;;;4970741;28;20024;-54
2022/12/11 12:05:45;;;;;;;10.48;9.38;;;26.50;93.70;;;;;;4964782;28;20337;-55
2022/12/11 12:08:34;;;;;;;14.65;10.10;;;26.50;93.70;;;;;;4961947;28;20047;-54
2022/12/11 12:11:41;;;;;;;10.48;9.38;;;26.60;93.70;;;;;;4970301;28;20047;-55
2022/12/11 12:14:32;;;;;;;10.15;9.10;;;26.60;93.70;;;;;;4976145;28;20319;-53
2022/12/11 12:17:08;;;;;;;10.65;9.52;;;26.60;93.80;;;;;;4965610;28;20526;-54
2022/12/11 12:19:54;;;;;;;13.05;9.10;;;26.60;93.80;;;;;;4974759;28;20030;-58
2022/12/11 12:22:36;;;;;;;10.32;9.32;;;26.60;93.80;;;;;;4964648;28;20323;-58
2022/12/11 12:25:09;;;;;;;12.68;9.50;;;26.70;93.80;;;;;;4967758;28;20046;-56
2022/12/11 12:28:10;;;;;;;10.10;9.10;;;26.70;93.80;;;;;;4973047;28;20239;-56
2022/12/11 12:31:00;;;;;;;10.65;9.02;;;26.70;93.80;;;;;;4960169;28;20053;-55
2022/12/11 12:33:44;;;;;;;10.60;9.15;;;26.80;93.90;;;;;;4983858;28;20342;-57
2022/12/11 12:36:36;;;;;;;10.57;9.50;;;26.80;93.80;;;;;;4983738;28;20322;-57
2022/12/11 12:39:29;;;;;;;11.07;9.45;;;26.80;93.80;;;;;;4995650;28;20039;-55
2022/12/11 12:42:04;;;;;;;11.45;9.65;;;26.90;93.80;;;;;;4967793;28;20296;-52
2022/12/11 12:44:44;;;;;;;11.57;9.35;;;26.90;93.80;;;;;;4979066;28;20031;-51
2022/12/11 12:47:15;;;;;;;10.02;9.02;;;26.90;93.80;;;;;;4974874;28;20403;-56
2022/12/11 12:49:44;;;;;;;9.75;8.75;;;26.90;93.80;;;;;;4974510;28;20034;-53
2022/12/11 12:52:17;;;;;;;11.88;9.73;;;27.00;93.80;;;;;;4975423;28;20318;-55
2022/12/11 12:55:12;;;;;;;10.95;9.35;;;27.00;93.80;;;;;;4972121;28;20037;-55
2022/12/11 12:57:36;;;;;;;9.98;8.98;;;27.00;93.80;;;;;;4967460;28;20030;-55
2022/12/11 13:00:05;;;;;;;10.07;8.73;;;27.00;93.80;;;;;;4975342;28;20039;-55
2022/12/11 13:02:32;;;;;;;12.30;9.07;;;27.00;93.70;;;;;;4969945;28;20031;-52
2022/12/11 13:05:06;;;;;;;10.00;9.07;;;27.10;93.60;;;;;;4974693;28;20300;-55
2022/12/11 13:07:33;;;;;;;10.35;9.18;;;27.10;93.80;;;;;;4967127;28;20050;-54
2022/12/11 13:10:24;;;;;;;10.57;8.88;;;27.10;93.70;;;;;;4994492;28;20372;-56
2022/12/11 13:12:51;;;;;;;9.63;8.73;;;27.20;93.70;;;;;;4966912;28;20039;-57
2022/12/11 13:15:28;;;;;;;10.10;9.10;;;27.20;93.70;;;;;;5004307;28;20019;-52
2022/12/11 13:17:56;;;;;;;11.02;9.23;;;27.20;93.70;;;;;;4975335;28;20315;-54
2022/12/11 13:20:25;;;;;;;9.65;8.65;;;27.20;93.70;;;;;;4980737;28;20427;-56
2022/12/11 13:23:16;;;;;;;10.52;8.55;;;27.30;93.70;;;;;;4978588;28;20045;-56